createdAt,value
2023-12-30T00:04:54.945Z,7.52
2023-12-30T00:10:02.861Z,7.52
2023-12-30T00:15:12.817Z,7.52
2023-12-30T00:20:20.478Z,7.53
2023-12-30T00:25:28.448Z,7.53
2023-12-30T00:30:36.049Z,7.54
2023-12-30T00:35:43.792Z,7.55
2023-12-30T00:40:51.108Z,7.55
2023-12-30T00:45:58.582Z,7.55
2023-12-30T00:51:06.939Z,7.54
2023-12-30T00:56:15.767Z,7.54
2023-12-30T01:01:23.698Z,7.53
2023-12-30T01:06:31.334Z,7.54
2023-12-30T01:11:38.913Z,7.54
2023-12-30T01:16:46.380Z,7.57
2023-12-30T01:21:53.842Z,7.58
2023-12-30T01:27:01.198Z,7.59
2023-12-30T01:32:09.447Z,7.61
2023-12-30T01:37:17.172Z,7.62
2023-12-30T01:42:24.524Z,7.64
2023-12-30T01:47:32.173Z,7.65
2023-12-30T01:52:40.964Z,7.64
2023-12-30T01:57:49.897Z,7.65
2023-12-30T02:02:58.648Z,7.67
2023-12-30T02:08:06.604Z,7.69
2023-12-30T02:13:14.905Z,7.71
2023-12-30T02:18:22.499Z,7.73
2023-12-30T02:23:30.090Z,7.75
2023-12-30T02:28:38.022Z,7.76
2023-12-30T02:33:45.893Z,7.76
2023-12-30T02:38:53.603Z,7.76
2023-12-30T02:44:03.172Z,7.76
2023-12-30T02:49:10.719Z,7.75
2023-12-30T02:54:18.645Z,7.75
2023-12-30T02:59:26.052Z,7.76
2023-12-30T03:04:34.105Z,7.75
2023-12-30T03:09:41.443Z,7.75
2023-12-30T03:14:49.421Z,7.74
2023-12-30T03:19:57.013Z,7.72
2023-12-30T03:25:06.299Z,7.72
2023-12-30T03:30:15.696Z,7.70
2023-12-30T03:35:23.401Z,7.68
2023-12-30T03:40:30.997Z,7.66
2023-12-30T03:45:38.721Z,7.63
2023-12-30T03:50:46.842Z,7.58
2023-12-30T03:55:54.870Z,7.54
2023-12-30T04:06:43.143Z,7.47
2023-12-30T04:11:50.958Z,7.43
2023-12-30T04:16:58.728Z,7.39
2023-12-30T04:22:07.008Z,7.36
2023-12-30T04:27:14.527Z,7.33
2023-12-30T04:32:22.811Z,7.30
2023-12-30T04:37:30.583Z,7.27
2023-12-30T04:42:38.574Z,7.24
2023-12-30T04:47:46.799Z,7.21
2023-12-30T04:52:54.899Z,7.19
2023-12-30T04:58:03.590Z,7.17
2023-12-30T05:03:11.177Z,7.13
2023-12-30T05:08:18.632Z,7.10
2023-12-30T05:13:26.847Z,7.06
2023-12-30T05:18:34.125Z,7.01
2023-12-30T05:23:41.967Z,6.96
2023-12-30T05:28:49.196Z,6.93
2023-12-30T05:33:57.534Z,6.88
2023-12-30T05:39:05.786Z,6.83
2023-12-30T05:44:14.027Z,6.78
2023-12-30T05:49:22.238Z,6.73
2023-12-30T05:54:30.775Z,6.68
2023-12-30T05:59:38.241Z,6.63
2023-12-30T06:04:45.685Z,6.59
2023-12-30T06:09:54.600Z,6.54
2023-12-30T06:15:02.810Z,6.50
2023-12-30T06:20:12.766Z,6.46
2023-12-30T06:25:20.292Z,6.43
2023-12-30T06:30:28.586Z,6.41
2023-12-30T06:35:36.440Z,6.39
2023-12-30T06:40:47.198Z,6.37
2023-12-30T06:45:55.909Z,6.37
2023-12-30T06:51:04.286Z,6.36
2023-12-30T06:56:12.621Z,6.35
2023-12-30T07:01:21.557Z,6.34
2023-12-30T07:06:29.291Z,6.35
2023-12-30T07:11:37.269Z,6.35
2023-12-30T07:16:51.087Z,6.35
2023-12-30T07:21:58.340Z,6.35
2023-12-30T07:27:07.296Z,6.35
2023-12-30T07:32:15.412Z,6.36
2023-12-30T07:37:22.819Z,6.35
2023-12-30T07:42:31.454Z,6.35
2023-12-30T07:47:40.067Z,6.35
2023-12-30T07:52:48.691Z,6.34
2023-12-30T07:57:57.041Z,6.34
2023-12-30T08:03:06.389Z,6.33
2023-12-30T08:08:15.501Z,6.33
2023-12-30T08:13:23.804Z,6.34
2023-12-30T08:18:31.165Z,6.36
2023-12-30T08:23:40.010Z,6.36
2023-12-30T08:28:47.643Z,6.38
2023-12-30T08:33:57.002Z,6.39
2023-12-30T08:39:05.467Z,6.41
2023-12-30T08:44:12.668Z,6.42
2023-12-30T08:49:20.020Z,6.43
2023-12-30T08:54:27.394Z,6.44
2023-12-30T08:59:35.657Z,6.44
2023-12-30T09:04:43.959Z,6.44
2023-12-30T09:09:52.144Z,6.45
2023-12-30T09:14:59.366Z,6.46
2023-12-30T09:20:08.341Z,6.46
2023-12-30T09:25:16.048Z,6.47
2023-12-30T09:30:23.790Z,6.47
2023-12-30T09:35:31.232Z,6.48
2023-12-30T09:40:38.826Z,6.48
2023-12-30T09:45:46.757Z,6.49
2023-12-30T09:50:54.762Z,6.51
2023-12-30T09:56:02.956Z,6.54
2023-12-30T10:01:10.801Z,6.57
2023-12-30T10:06:22.198Z,6.60
2023-12-30T10:11:29.888Z,6.64
2023-12-30T10:16:37.885Z,6.68
2023-12-30T10:21:45.734Z,6.73
2023-12-30T10:26:53.352Z,6.78
2023-12-30T10:32:10.397Z,6.84
2023-12-30T10:37:18.909Z,6.90
2023-12-30T10:42:26.800Z,6.95
2023-12-30T10:47:40.437Z,6.98
2023-12-30T10:52:58.516Z,7.02
2023-12-30T10:58:19.970Z,7.06
2023-12-30T11:03:29.697Z,7.12
2023-12-30T11:08:38.080Z,7.18
2023-12-30T11:13:46.922Z,7.26
2023-12-30T11:18:55.660Z,7.34
2023-12-30T11:24:07.697Z,7.42
2023-12-30T11:29:16.844Z,7.50
2023-12-30T11:34:24.379Z,7.56
2023-12-30T11:39:33.762Z,7.57
2023-12-30T11:44:43.224Z,7.54
2023-12-30T11:49:51.481Z,7.49
2023-12-30T11:54:59.677Z,7.42
2023-12-30T12:00:11.691Z,7.36
2023-12-30T12:05:22.582Z,7.29
2023-12-30T12:10:31.028Z,7.24
2023-12-30T12:15:38.816Z,7.18
2023-12-30T12:20:46.995Z,7.15
2023-12-30T12:25:55.239Z,7.12
2023-12-30T12:31:08.097Z,7.12
2023-12-30T12:36:16.586Z,7.11
2023-12-30T12:41:23.759Z,7.12
2023-12-30T12:46:31.610Z,7.12
2023-12-30T12:51:41.005Z,7.11
2023-12-30T12:56:48.567Z,7.10
2023-12-30T13:01:56.442Z,7.09
2023-12-30T13:07:07.922Z,7.08
2023-12-30T13:12:15.805Z,7.06
2023-12-30T13:17:23.257Z,7.05
2023-12-30T13:22:31.012Z,7.02
2023-12-30T13:27:38.544Z,7.00
2023-12-30T13:32:46.040Z,6.97
2023-12-30T13:37:56.971Z,6.94
2023-12-30T13:43:09.535Z,6.91
2023-12-30T13:48:26.638Z,6.88
2023-12-30T13:53:34.207Z,6.85
2023-12-30T13:58:41.814Z,6.82
2023-12-30T14:03:49.861Z,6.79
2023-12-30T14:08:57.241Z,6.75
2023-12-30T14:14:10.717Z,6.72
2023-12-30T14:19:18.322Z,6.68
2023-12-30T14:24:25.623Z,6.65
2023-12-30T14:29:32.754Z,6.62
2023-12-30T14:34:40.498Z,6.59
2023-12-30T14:39:48.121Z,6.58
2023-12-30T14:44:55.647Z,6.56
2023-12-30T14:50:02.917Z,6.55
2023-12-30T14:55:12.848Z,6.54
2023-12-30T15:00:23.475Z,6.51
2023-12-30T15:05:32.465Z,6.49
2023-12-30T15:10:39.887Z,6.47
2023-12-30T15:15:48.012Z,6.46
2023-12-30T15:20:55.562Z,6.44
2023-12-30T15:26:02.766Z,6.43
2023-12-30T15:31:10.237Z,6.42
2023-12-30T15:36:18.095Z,6.42
2023-12-30T15:41:25.244Z,6.41
2023-12-30T15:46:33.927Z,6.41
2023-12-30T15:51:41.888Z,6.40
2023-12-30T15:56:50.070Z,6.39
2023-12-30T16:01:57.287Z,6.38
2023-12-30T16:07:04.913Z,6.38
2023-12-30T16:12:13.060Z,6.38
2023-12-30T16:17:20.371Z,6.39
2023-12-30T16:22:27.761Z,6.39
2023-12-30T16:27:35.053Z,6.39
2023-12-30T16:32:42.254Z,6.39
2023-12-30T16:37:51.062Z,6.39
2023-12-30T16:42:58.445Z,6.40
2023-12-30T16:48:05.909Z,6.41
2023-12-30T16:53:13.627Z,6.41
2023-12-30T16:58:21.697Z,6.40
2023-12-30T17:03:28.964Z,6.39
2023-12-30T17:08:36.283Z,6.40
2023-12-30T17:13:50.495Z,6.38
2023-12-30T17:19:01.441Z,6.38
2023-12-30T17:24:10.638Z,6.36
2023-12-30T17:29:17.821Z,6.35
2023-12-30T17:34:25.242Z,6.34
2023-12-30T17:39:32.781Z,6.33
2023-12-30T17:44:40.139Z,6.32
2023-12-30T17:49:48.495Z,6.31
2023-12-30T17:54:57.628Z,6.32
2023-12-30T18:00:05.529Z,6.33
2023-12-30T18:05:13.490Z,6.34
2023-12-30T18:10:21.962Z,6.35
2023-12-30T18:15:39.111Z,6.34
2023-12-30T18:20:48.133Z,6.33
2023-12-30T18:25:56.757Z,6.32
2023-12-30T18:31:04.507Z,6.30
2023-12-30T18:36:13.575Z,6.29
2023-12-30T18:41:21.712Z,6.27
2023-12-30T18:46:30.634Z,6.25
2023-12-30T18:51:37.895Z,6.24
2023-12-30T18:56:46.462Z,6.23
2023-12-30T19:01:55.524Z,6.22
2023-12-30T19:07:04.590Z,6.22
2023-12-30T19:12:13.144Z,6.22
2023-12-30T19:17:21.282Z,6.22
2023-12-30T19:22:30.781Z,6.22
2023-12-30T19:27:39.029Z,6.21
2023-12-30T19:32:46.318Z,6.20
2023-12-30T19:37:53.984Z,6.19
2023-12-30T19:43:01.400Z,6.17
2023-12-30T19:48:10.574Z,6.14
2023-12-30T19:53:19.284Z,6.09
2023-12-30T19:58:27.616Z,6.05
2023-12-30T20:03:35.175Z,6.02
2023-12-30T20:08:43.976Z,5.96
2023-12-30T20:13:51.934Z,5.90
2023-12-30T20:19:00.716Z,5.84
2023-12-30T20:24:10.687Z,5.78
2023-12-30T20:29:19.264Z,5.73
2023-12-30T20:34:31.322Z,5.66
2023-12-30T20:39:39.169Z,5.61
2023-12-30T20:44:46.419Z,5.56
2023-12-30T20:49:54.825Z,5.51
2023-12-30T20:55:05.302Z,5.45
2023-12-30T21:00:14.756Z,5.40
2023-12-30T21:05:22.485Z,5.35
2023-12-30T21:10:30.400Z,5.29
2023-12-30T21:15:37.857Z,5.24
2023-12-30T21:20:45.793Z,5.19
2023-12-30T21:25:53.245Z,5.15
2023-12-30T21:31:00.985Z,5.11
2023-12-30T21:36:09.983Z,5.09
2023-12-30T21:41:25.215Z,5.07
2023-12-30T21:46:32.811Z,5.05
2023-12-30T21:51:43.051Z,5.03
2023-12-30T21:56:50.991Z,5.03
2023-12-30T22:01:58.846Z,5.02
2023-12-30T22:07:06.503Z,5.02
2023-12-30T22:12:14.465Z,5.02
2023-12-30T22:17:22.243Z,5.00
2023-12-30T22:22:30.017Z,4.99
2023-12-30T22:27:38.500Z,4.97
2023-12-30T22:32:45.800Z,4.99
2023-12-30T22:37:54.118Z,5.13
2023-12-30T22:43:02.028Z,5.09
2023-12-30T22:48:12.165Z,5.00
2023-12-30T22:53:20.386Z,4.93
2023-12-30T22:58:27.686Z,4.89
2023-12-30T23:03:34.981Z,4.83
2023-12-30T23:08:42.775Z,4.78
2023-12-30T23:13:50.476Z,4.73
2023-12-30T23:18:59.335Z,4.69
2023-12-30T23:24:07.416Z,4.65
2023-12-30T23:29:15.159Z,4.61
2023-12-30T23:34:33.031Z,4.58
2023-12-30T23:39:47.617Z,4.55
2023-12-30T23:44:54.864Z,4.52
2023-12-30T23:50:02.716Z,4.49
2023-12-30T23:55:11.277Z,4.45
